sensor_id;sensor_type;location;lat;lon;timestamp;P1;durP1;ratioP1;P2;durP2;ratioP2
44995;SDS011;30729;49.486;10.792;2023-06-22T00:01:14;13.05;;;8.45;;
44995;SDS011;30729;49.486;10.792;2023-06-22T00:03:39;13.67;;;9.83;;
44995;SDS011;30729;49.486;10.792;2023-06-22T00:06:04;14.20;;;9.73;;
44995;SDS011;30729;49.486;10.792;2023-06-22T00:08:29;13.30;;;8.93;;
44995;SDS011;30729;49.486;10.792;2023-06-22T00:10:54;14.90;;;9.32;;
44995;SDS011;30729;49.486;10.792;2023-06-22T00:13:19;12.70;;;9.18;;
44995;SDS011;30729;49.486;10.792;2023-06-22T00:15:45;12.98;;;8.05;;
44995;SDS011;30729;49.486;10.792;2023-06-22T00:18:10;15.60;;;8.57;;
44995;SDS011;30729;49.486;10.792;2023-06-22T00:20:36;14.35;;;9.40;;
44995;SDS011;30729;49.486;10.792;2023-06-22T00:23:05;14.05;;;9.30;;
44995;SDS011;30729;49.486;10.792;2023-06-22T00:25:33;14.55;;;9.43;;
44995;SDS011;30729;49.486;10.792;2023-06-22T00:27:59;14.52;;;9.50;;
44995;SDS011;30729;49.486;10.792;2023-06-22T00:30:24;13.00;;;8.93;;
44995;SDS011;30729;49.486;10.792;2023-06-22T00:32:49;14.40;;;9.48;;
44995;SDS011;30729;49.486;10.792;2023-06-22T00:35:14;13.80;;;8.43;;
44995;SDS011;30729;49.486;10.792;2023-06-22T00:37:39;13.40;;;9.57;;
44995;SDS011;30729;49.486;10.792;2023-06-22T00:40:08;13.43;;;9.25;;
44995;SDS011;30729;49.486;10.792;2023-06-22T00:42:34;13.23;;;8.70;;
44995;SDS011;30729;49.486;10.792;2023-06-22T00:44:59;13.98;;;8.77;;
44995;SDS011;30729;49.486;10.792;2023-06-22T00:47:24;13.60;;;8.53;;
44995;SDS011;30729;49.486;10.792;2023-06-22T00:49:49;15.48;;;9.18;;
44995;SDS011;30729;49.486;10.792;2023-06-22T00:52:16;14.18;;;8.95;;
44995;SDS011;30729;49.486;10.792;2023-06-22T00:54:45;12.70;;;8.75;;
44995;SDS011;30729;49.486;10.792;2023-06-22T00:57:14;11.68;;;7.93;;
44995;SDS011;30729;49.486;10.792;2023-06-22T00:59:42;13.80;;;9.02;;
44995;SDS011;30729;49.486;10.792;2023-06-22T01:02:07;13.00;;;8.73;;
44995;SDS011;30729;49.486;10.792;2023-06-22T01:04:36;14.13;;;9.55;;
44995;SDS011;30729;49.486;10.792;2023-06-22T01:09:31;13.40;;;9.18;;
44995;SDS011;30729;49.486;10.792;2023-06-22T01:11:59;15.52;;;8.60;;
44995;SDS011;30729;49.486;10.792;2023-06-22T01:14:28;13.02;;;7.55;;
44995;SDS011;30729;49.486;10.792;2023-06-22T01:16:56;14.40;;;9.55;;
44995;SDS011;30729;49.486;10.792;2023-06-22T01:21:50;13.75;;;8.85;;
44995;SDS011;30729;49.486;10.792;2023-06-22T01:24:23;12.35;;;8.30;;
44995;SDS011;30729;49.486;10.792;2023-06-22T01:29:33;15.65;;;8.35;;
44995;SDS011;30729;49.486;10.792;2023-06-22T01:31:59;15.82;;;8.65;;
44995;SDS011;30729;49.486;10.792;2023-06-22T01:34:25;13.30;;;8.65;;
44995;SDS011;30729;49.486;10.792;2023-06-22T01:36:50;12.73;;;7.85;;
44995;SDS011;30729;49.486;10.792;2023-06-22T01:39:16;12.55;;;7.57;;
44995;SDS011;30729;49.486;10.792;2023-06-22T01:41:41;12.43;;;6.95;;
44995;SDS011;30729;49.486;10.792;2023-06-22T01:44:07;11.68;;;7.90;;
44995;SDS011;30729;49.486;10.792;2023-06-22T01:46:34;12.18;;;7.40;;
44995;SDS011;30729;49.486;10.792;2023-06-22T01:48:59;12.65;;;7.63;;
44995;SDS011;30729;49.486;10.792;2023-06-22T01:51:24;11.50;;;7.38;;
44995;SDS011;30729;49.486;10.792;2023-06-22T01:53:49;13.87;;;7.60;;
44995;SDS011;30729;49.486;10.792;2023-06-22T01:56:18;15.90;;;8.18;;
44995;SDS011;30729;49.486;10.792;2023-06-22T01:58:47;13.05;;;7.55;;
44995;SDS011;30729;49.486;10.792;2023-06-22T02:01:13;15.32;;;8.00;;
44995;SDS011;30729;49.486;10.792;2023-06-22T02:03:44;11.35;;;7.70;;
44995;SDS011;30729;49.486;10.792;2023-06-22T02:06:14;12.55;;;7.95;;
44995;SDS011;30729;49.486;10.792;2023-06-22T02:08:41;13.80;;;8.73;;
44995;SDS011;30729;49.486;10.792;2023-06-22T02:11:09;13.68;;;8.85;;
44995;SDS011;30729;49.486;10.792;2023-06-22T02:13:36;12.60;;;7.63;;
44995;SDS011;30729;49.486;10.792;2023-06-22T02:16:01;12.70;;;7.57;;
44995;SDS011;30729;49.486;10.792;2023-06-22T02:18:27;12.32;;;8.32;;
44995;SDS011;30729;49.486;10.792;2023-06-22T02:20:53;12.85;;;8.23;;
44995;SDS011;30729;49.486;10.792;2023-06-22T02:23:18;12.23;;;7.88;;
44995;SDS011;30729;49.486;10.792;2023-06-22T02:25:43;13.20;;;8.63;;
44995;SDS011;30729;49.486;10.792;2023-06-22T02:28:09;13.00;;;8.02;;
44995;SDS011;30729;49.486;10.792;2023-06-22T02:30:34;15.47;;;8.83;;
44995;SDS011;30729;49.486;10.792;2023-06-22T02:32:59;14.57;;;8.43;;
44995;SDS011;30729;49.486;10.792;2023-06-22T02:35:25;12.63;;;8.75;;
44995;SDS011;30729;49.486;10.792;2023-06-22T02:37:50;12.68;;;8.63;;
44995;SDS011;30729;49.486;10.792;2023-06-22T02:40:17;14.30;;;9.77;;
44995;SDS011;30729;49.486;10.792;2023-06-22T02:42:42;16.60;;;10.60;;
44995;SDS011;30729;49.486;10.792;2023-06-22T02:45:07;13.88;;;9.43;;
44995;SDS011;30729;49.486;10.792;2023-06-22T02:47:32;12.57;;;9.35;;
44995;SDS011;30729;49.486;10.792;2023-06-22T02:49:58;16.65;;;8.80;;
44995;SDS011;30729;49.486;10.792;2023-06-22T02:52:23;15.95;;;10.18;;
44995;SDS011;30729;49.486;10.792;2023-06-22T02:54:48;13.23;;;8.90;;
44995;SDS011;30729;49.486;10.792;2023-06-22T02:57:14;14.05;;;9.25;;
44995;SDS011;30729;49.486;10.792;2023-06-22T02:59:39;12.65;;;7.68;;
44995;SDS011;30729;49.486;10.792;2023-06-22T03:02:05;14.63;;;8.00;;
44995;SDS011;30729;49.486;10.792;2023-06-22T03:04:31;13.23;;;8.90;;
44995;SDS011;30729;49.486;10.792;2023-06-22T03:06:56;13.85;;;8.27;;
44995;SDS011;30729;49.486;10.792;2023-06-22T03:09:21;13.88;;;8.18;;
44995;SDS011;30729;49.486;10.792;2023-06-22T03:11:46;12.25;;;7.40;;
44995;SDS011;30729;49.486;10.792;2023-06-22T03:14:11;13.02;;;8.07;;
44995;SDS011;30729;49.486;10.792;2023-06-22T03:16:37;12.13;;;8.03;;
44995;SDS011;30729;49.486;10.792;2023-06-22T03:19:02;13.00;;;8.18;;
44995;SDS011;30729;49.486;10.792;2023-06-22T03:21:27;16.47;;;9.43;;
44995;SDS011;30729;49.486;10.792;2023-06-22T03:23:53;13.93;;;8.50;;
44995;SDS011;30729;49.486;10.792;2023-06-22T03:26:18;13.93;;;8.55;;
44995;SDS011;30729;49.486;10.792;2023-06-22T03:28:43;16.00;;;9.38;;
44995;SDS011;30729;49.486;10.792;2023-06-22T03:31:08;11.67;;;8.50;;
44995;SDS011;30729;49.486;10.792;2023-06-22T03:33:33;13.77;;;9.32;;
44995;SDS011;30729;49.486;10.792;2023-06-22T03:35:58;12.98;;;8.35;;
44995;SDS011;30729;49.486;10.792;2023-06-22T03:38:24;14.65;;;7.78;;
44995;SDS011;30729;49.486;10.792;2023-06-22T03:40:49;13.87;;;8.43;;
44995;SDS011;30729;49.486;10.792;2023-06-22T03:43:14;13.10;;;7.97;;
44995;SDS011;30729;49.486;10.792;2023-06-22T03:45:39;13.93;;;8.27;;
44995;SDS011;30729;49.486;10.792;2023-06-22T03:48:05;14.43;;;9.38;;
44995;SDS011;30729;49.486;10.792;2023-06-22T03:50:30;16.73;;;10.17;;
44995;SDS011;30729;49.486;10.792;2023-06-22T03:52:55;14.20;;;9.68;;
44995;SDS011;30729;49.486;10.792;2023-06-22T03:55:20;15.63;;;8.75;;
44995;SDS011;30729;49.486;10.792;2023-06-22T03:57:46;15.20;;;9.23;;
44995;SDS011;30729;49.486;10.792;2023-06-22T04:00:11;11.75;;;8.23;;
44995;SDS011;30729;49.486;10.792;2023-06-22T04:02:36;13.95;;;8.93;;
44995;SDS011;30729;49.486;10.792;2023-06-22T04:05:02;15.10;;;8.70;;
44995;SDS011;30729;49.486;10.792;2023-06-22T04:07:27;13.70;;;8.73;;
44995;SDS011;30729;49.486;10.792;2023-06-22T04:09:52;15.82;;;8.68;;
44995;SDS011;30729;49.486;10.792;2023-06-22T04:12:17;13.48;;;8.60;;
44995;SDS011;30729;49.486;10.792;2023-06-22T04:14:42;13.07;;;9.35;;
44995;SDS011;30729;49.486;10.792;2023-06-22T04:17:07;16.40;;;10.13;;
44995;SDS011;30729;49.486;10.792;2023-06-22T04:19:32;12.65;;;8.27;;
44995;SDS011;30729;49.486;10.792;2023-06-22T04:21:58;13.93;;;9.33;;
44995;SDS011;30729;49.486;10.792;2023-06-22T04:24:23;14.40;;;9.53;;
44995;SDS011;30729;49.486;10.792;2023-06-22T04:26:48;19.07;;;9.03;;
44995;SDS011;30729;49.486;10.792;2023-06-22T04:29:13;14.00;;;9.45;;
44995;SDS011;30729;49.486;10.792;2023-06-22T04:31:38;13.53;;;8.93;;
44995;SDS011;30729;49.486;10.792;2023-06-22T04:34:04;16.93;;;9.90;;
44995;SDS011;30729;49.486;10.792;2023-06-22T04:36:33;16.67;;;9.43;;
44995;SDS011;30729;49.486;10.792;2023-06-22T04:39:02;16.17;;;10.23;;
44995;SDS011;30729;49.486;10.792;2023-06-22T04:41:28;13.85;;;10.27;;
44995;SDS011;30729;49.486;10.792;2023-06-22T04:43:53;16.27;;;11.10;;
44995;SDS011;30729;49.486;10.792;2023-06-22T04:46:19;16.00;;;10.50;;
44995;SDS011;30729;49.486;10.792;2023-06-22T04:48:44;15.45;;;11.30;;
44995;SDS011;30729;49.486;10.792;2023-06-22T04:51:09;15.10;;;9.65;;
44995;SDS011;30729;49.486;10.792;2023-06-22T04:53:35;17.90;;;9.98;;
44995;SDS011;30729;49.486;10.792;2023-06-22T04:56:00;15.00;;;9.93;;
44995;SDS011;30729;49.486;10.792;2023-06-22T04:58:25;15.32;;;10.52;;
44995;SDS011;30729;49.486;10.792;2023-06-22T05:00:53;15.57;;;11.02;;
44995;SDS011;30729;49.486;10.792;2023-06-22T05:03:21;15.93;;;10.35;;
44995;SDS011;30729;49.486;10.792;2023-06-22T05:05:47;17.20;;;11.52;;
44995;SDS011;30729;49.486;10.792;2023-06-22T05:08:12;15.85;;;10.18;;
44995;SDS011;30729;49.486;10.792;2023-06-22T05:10:37;17.52;;;12.00;;
44995;SDS011;30729;49.486;10.792;2023-06-22T05:13:03;15.32;;;10.13;;
44995;SDS011;30729;49.486;10.792;2023-06-22T05:15:28;15.98;;;10.35;;
44995;SDS011;30729;49.486;10.792;2023-06-22T05:17:55;15.35;;;10.15;;
44995;SDS011;30729;49.486;10.792;2023-06-22T05:20:20;14.43;;;10.77;;
44995;SDS011;30729;49.486;10.792;2023-06-22T05:22:46;14.27;;;9.93;;
44995;SDS011;30729;49.486;10.792;2023-06-22T05:25:12;17.77;;;10.63;;
44995;SDS011;30729;49.486;10.792;2023-06-22T05:27:38;14.25;;;10.18;;
44995;SDS011;30729;49.486;10.792;2023-06-22T05:30:05;16.08;;;10.02;;
44995;SDS011;30729;49.486;10.792;2023-06-22T05:32:30;13.93;;;9.68;;
44995;SDS011;30729;49.486;10.792;2023-06-22T05:34:55;17.25;;;11.27;;
44995;SDS011;30729;49.486;10.792;2023-06-22T05:37:20;15.68;;;10.55;;
44995;SDS011;30729;49.486;10.792;2023-06-22T05:39:46;14.18;;;9.90;;
44995;SDS011;30729;49.486;10.792;2023-06-22T05:42:11;15.27;;;10.10;;
44995;SDS011;30729;49.486;10.792;2023-06-22T05:44:36;14.68;;;10.30;;
44995;SDS011;30729;49.486;10.792;2023-06-22T05:47:04;15.75;;;9.35;;
44995;SDS011;30729;49.486;10.792;2023-06-22T05:49:29;16.67;;;9.27;;
44995;SDS011;30729;49.486;10.792;2023-06-22T05:51:57;14.75;;;9.02;;
44995;SDS011;30729;49.486;10.792;2023-06-22T05:54:22;12.15;;;8.45;;
44995;SDS011;30729;49.486;10.792;2023-06-22T05:56:48;12.25;;;7.55;;
44995;SDS011;30729;49.486;10.792;2023-06-22T05:59:13;13.88;;;7.65;;
44995;SDS011;30729;49.486;10.792;2023-06-22T06:01:38;13.57;;;8.50;;
44995;SDS011;30729;49.486;10.792;2023-06-22T06:04:04;13.45;;;8.38;;
44995;SDS011;30729;49.486;10.792;2023-06-22T06:06:30;11.68;;;7.25;;
44995;SDS011;30729;49.486;10.792;2023-06-22T06:08:55;11.13;;;7.93;;
44995;SDS011;30729;49.486;10.792;2023-06-22T06:11:20;12.20;;;7.60;;
44995;SDS011;30729;49.486;10.792;2023-06-22T06:13:46;13.48;;;7.50;;
44995;SDS011;30729;49.486;10.792;2023-06-22T06:16:11;11.65;;;7.88;;
44995;SDS011;30729;49.486;10.792;2023-06-22T06:18:36;11.45;;;7.30;;
44995;SDS011;30729;49.486;10.792;2023-06-22T06:21:02;11.48;;;7.65;;
44995;SDS011;30729;49.486;10.792;2023-06-22T06:23:27;10.83;;;7.50;;
44995;SDS011;30729;49.486;10.792;2023-06-22T06:25:52;13.07;;;7.23;;
44995;SDS011;30729;49.486;10.792;2023-06-22T06:28:17;10.98;;;6.70;;
44995;SDS011;30729;49.486;10.792;2023-06-22T06:30:43;11.68;;;7.30;;
44995;SDS011;30729;49.486;10.792;2023-06-22T06:33:08;14.27;;;7.78;;
44995;SDS011;30729;49.486;10.792;2023-06-22T06:35:34;11.18;;;7.18;;
44995;SDS011;30729;49.486;10.792;2023-06-22T06:37:59;12.98;;;8.02;;
44995;SDS011;30729;49.486;10.792;2023-06-22T06:40:24;13.00;;;7.37;;
44995;SDS011;30729;49.486;10.792;2023-06-22T06:42:49;13.35;;;8.32;;
44995;SDS011;30729;49.486;10.792;2023-06-22T06:45:16;11.95;;;7.50;;
44995;SDS011;30729;49.486;10.792;2023-06-22T06:47:41;12.38;;;7.43;;
44995;SDS011;30729;49.486;10.792;2023-06-22T06:50:07;13.18;;;7.85;;
44995;SDS011;30729;49.486;10.792;2023-06-22T06:52:32;11.95;;;7.32;;
44995;SDS011;30729;49.486;10.792;2023-06-22T06:54:57;11.68;;;7.70;;
44995;SDS011;30729;49.486;10.792;2023-06-22T06:57:23;11.97;;;7.37;;
44995;SDS011;30729;49.486;10.792;2023-06-22T06:59:48;12.38;;;8.48;;
44995;SDS011;30729;49.486;10.792;2023-06-22T07:02:14;13.15;;;8.00;;
44995;SDS011;30729;49.486;10.792;2023-06-22T07:04:40;10.93;;;7.03;;
44995;SDS011;30729;49.486;10.792;2023-06-22T07:07:05;12.98;;;6.85;;
44995;SDS011;30729;49.486;10.792;2023-06-22T07:09:30;13.05;;;7.55;;
44995;SDS011;30729;49.486;10.792;2023-06-22T07:11:55;13.80;;;6.57;;
44995;SDS011;30729;49.486;10.792;2023-06-22T07:14:20;12.13;;;6.80;;
44995;SDS011;30729;49.486;10.792;2023-06-22T07:16:46;11.25;;;6.65;;
44995;SDS011;30729;49.486;10.792;2023-06-22T07:19:11;10.57;;;6.85;;
44995;SDS011;30729;49.486;10.792;2023-06-22T07:21:36;13.20;;;6.97;;
44995;SDS011;30729;49.486;10.792;2023-06-22T07:24:01;10.50;;;6.87;;
44995;SDS011;30729;49.486;10.792;2023-06-22T07:26:27;11.30;;;7.20;;
44995;SDS011;30729;49.486;10.792;2023-06-22T07:28:52;11.05;;;6.68;;
44995;SDS011;30729;49.486;10.792;2023-06-22T07:31:17;10.70;;;6.63;;
44995;SDS011;30729;49.486;10.792;2023-06-22T07:33:42;10.70;;;6.10;;
44995;SDS011;30729;49.486;10.792;2023-06-22T07:36:07;11.07;;;6.50;;
44995;SDS011;30729;49.486;10.792;2023-06-22T07:38:33;10.43;;;6.07;;
44995;SDS011;30729;49.486;10.792;2023-06-22T07:40:59;8.70;;;6.05;;
44995;SDS011;30729;49.486;10.792;2023-06-22T07:43:24;9.13;;;5.73;;
44995;SDS011;30729;49.486;10.792;2023-06-22T07:45:49;9.90;;;6.00;;
44995;SDS011;30729;49.486;10.792;2023-06-22T07:48:21;9.60;;;5.72;;
44995;SDS011;30729;49.486;10.792;2023-06-22T07:50:47;10.38;;;6.32;;
44995;SDS011;30729;49.486;10.792;2023-06-22T07:53:12;10.48;;;6.07;;
44995;SDS011;30729;49.486;10.792;2023-06-22T07:55:37;11.03;;;6.10;;
44995;SDS011;30729;49.486;10.792;2023-06-22T07:58:02;10.87;;;6.53;;
44995;SDS011;30729;49.486;10.792;2023-06-22T08:00:27;9.07;;;5.38;;
44995;SDS011;30729;49.486;10.792;2023-06-22T08:02:52;11.50;;;5.47;;
44995;SDS011;30729;49.486;10.792;2023-06-22T08:05:18;8.40;;;5.43;;
44995;SDS011;30729;49.486;10.792;2023-06-22T08:07:43;8.83;;;5.50;;
44995;SDS011;30729;49.486;10.792;2023-06-22T08:10:12;9.45;;;5.30;;
44995;SDS011;30729;49.486;10.792;2023-06-22T08:12:38;9.63;;;6.60;;
44995;SDS011;30729;49.486;10.792;2023-06-22T08:15:04;11.00;;;6.22;;
44995;SDS011;30729;49.486;10.792;2023-06-22T08:17:29;10.15;;;6.68;;
44995;SDS011;30729;49.486;10.792;2023-06-22T08:19:56;9.32;;;5.75;;
44995;SDS011;30729;49.486;10.792;2023-06-22T08:22:46;9.00;;;5.85;;
44995;SDS011;30729;49.486;10.792;2023-06-22T08:25:11;8.33;;;5.83;;
44995;SDS011;30729;49.486;10.792;2023-06-22T08:27:38;7.90;;;6.50;;
44995;SDS011;30729;49.486;10.792;2023-06-22T08:30:03;9.27;;;6.30;;
44995;SDS011;30729;49.486;10.792;2023-06-22T08:32:28;10.95;;;7.63;;
44995;SDS011;30729;49.486;10.792;2023-06-22T08:34:54;10.25;;;6.30;;
44995;SDS011;30729;49.486;10.792;2023-06-22T08:37:19;9.82;;;6.03;;
44995;SDS011;30729;49.486;10.792;2023-06-22T08:39:44;8.88;;;5.97;;
44995;SDS011;30729;49.486;10.792;2023-06-22T08:42:09;9.68;;;6.45;;
44995;SDS011;30729;49.486;10.792;2023-06-22T08:44:34;9.23;;;7.15;;
44995;SDS011;30729;49.486;10.792;2023-06-22T08:47:00;11.93;;;6.78;;
44995;SDS011;30729;49.486;10.792;2023-06-22T08:49:25;9.87;;;7.53;;
44995;SDS011;30729;49.486;10.792;2023-06-22T08:51:50;10.33;;;6.53;;
44995;SDS011;30729;49.486;10.792;2023-06-22T08:54:18;8.80;;;6.60;;
44995;SDS011;30729;49.486;10.792;2023-06-22T08:56:43;8.95;;;6.28;;
44995;SDS011;30729;49.486;10.792;2023-06-22T08:59:09;8.77;;;7.85;;
44995;SDS011;30729;49.486;10.792;2023-06-22T09:01:34;10.30;;;7.57;;
44995;SDS011;30729;49.486;10.792;2023-06-22T09:03:59;10.35;;;7.30;;
44995;SDS011;30729;49.486;10.792;2023-06-22T09:06:24;11.98;;;7.22;;
44995;SDS011;30729;49.486;10.792;2023-06-22T09:08:50;9.73;;;6.60;;
44995;SDS011;30729;49.486;10.792;2023-06-22T09:11:15;8.85;;;6.78;;
44995;SDS011;30729;49.486;10.792;2023-06-22T09:13:40;7.97;;;6.87;;
44995;SDS011;30729;49.486;10.792;2023-06-22T09:16:05;10.20;;;6.53;;
44995;SDS011;30729;49.486;10.792;2023-06-22T09:18:31;8.88;;;6.32;;
44995;SDS011;30729;49.486;10.792;2023-06-22T09:20:56;8.20;;;6.35;;
44995;SDS011;30729;49.486;10.792;2023-06-22T09:23:21;9.40;;;7.35;;
44995;SDS011;30729;49.486;10.792;2023-06-22T09:25:47;9.95;;;6.65;;
44995;SDS011;30729;49.486;10.792;2023-06-22T09:28:13;10.50;;;7.28;;
44995;SDS011;30729;49.486;10.792;2023-06-22T09:30:38;10.65;;;7.18;;
44995;SDS011;30729;49.486;10.792;2023-06-22T09:33:03;10.37;;;8.23;;
44995;SDS011;30729;49.486;10.792;2023-06-22T09:35:28;9.73;;;7.33;;
44995;SDS011;30729;49.486;10.792;2023-06-22T09:37:53;8.90;;;8.00;;
44995;SDS011;30729;49.486;10.792;2023-06-22T09:40:18;8.77;;;7.47;;
44995;SDS011;30729;49.486;10.792;2023-06-22T09:42:45;9.95;;;7.93;;
44995;SDS011;30729;49.486;10.792;2023-06-22T09:45:10;12.05;;;7.63;;
44995;SDS011;30729;49.486;10.792;2023-06-22T09:47:35;13.70;;;8.50;;
44995;SDS011;30729;49.486;10.792;2023-06-22T09:50:00;9.82;;;8.32;;
44995;SDS011;30729;49.486;10.792;2023-06-22T09:52:26;9.52;;;8.43;;
44995;SDS011;30729;49.486;10.792;2023-06-22T09:54:51;10.30;;;9.40;;
44995;SDS011;30729;49.486;10.792;2023-06-22T09:57:16;10.82;;;9.75;;
44995;SDS011;30729;49.486;10.792;2023-06-22T09:59:42;12.02;;;10.90;;
44995;SDS011;30729;49.486;10.792;2023-06-22T10:02:07;12.83;;;10.77;;
44995;SDS011;30729;49.486;10.792;2023-06-22T10:04:33;12.32;;;11.00;;
44995;SDS011;30729;49.486;10.792;2023-06-22T10:06:58;12.30;;;11.13;;
44995;SDS011;30729;49.486;10.792;2023-06-22T10:09:23;12.75;;;11.65;;
44995;SDS011;30729;49.486;10.792;2023-06-22T10:11:48;14.20;;;12.47;;
44995;SDS011;30729;49.486;10.792;2023-06-22T10:14:14;15.03;;;13.77;;
44995;SDS011;30729;49.486;10.792;2023-06-22T10:16:39;13.50;;;12.15;;
44995;SDS011;30729;49.486;10.792;2023-06-22T10:19:06;16.00;;;14.50;;
44995;SDS011;30729;49.486;10.792;2023-06-22T10:21:31;16.77;;;15.37;;
44995;SDS011;30729;49.486;10.792;2023-06-22T10:23:56;16.85;;;15.43;;
44995;SDS011;30729;49.486;10.792;2023-06-22T10:26:21;15.67;;;14.37;;
44995;SDS011;30729;49.486;10.792;2023-06-22T10:28:47;21.50;;;18.67;;
44995;SDS011;30729;49.486;10.792;2023-06-22T10:31:12;16.95;;;15.55;;
44995;SDS011;30729;49.486;10.792;2023-06-22T10:33:37;18.33;;;17.00;;
44995;SDS011;30729;49.486;10.792;2023-06-22T10:36:02;16.37;;;15.10;;
44995;SDS011;30729;49.486;10.792;2023-06-22T10:38:27;17.90;;;16.15;;
44995;SDS011;30729;49.486;10.792;2023-06-22T10:40:53;17.73;;;16.27;;
44995;SDS011;30729;49.486;10.792;2023-06-22T10:43:18;18.93;;;17.40;;
44995;SDS011;30729;49.486;10.792;2023-06-22T10:45:43;18.27;;;16.90;;
44995;SDS011;30729;49.486;10.792;2023-06-22T10:48:08;18.88;;;17.25;;
44995;SDS011;30729;49.486;10.792;2023-06-22T10:50:34;17.52;;;16.23;;
44995;SDS011;30729;49.486;10.792;2023-06-22T10:53:00;19.73;;;17.88;;
44995;SDS011;30729;49.486;10.792;2023-06-22T10:55:25;22.40;;;20.80;;
44995;SDS011;30729;49.486;10.792;2023-06-22T10:57:50;23.08;;;21.45;;
44995;SDS011;30729;49.486;10.792;2023-06-22T11:00:17;20.27;;;18.58;;
44995;SDS011;30729;49.486;10.792;2023-06-22T11:02:42;20.23;;;18.70;;
44995;SDS011;30729;49.486;10.792;2023-06-22T11:05:07;21.08;;;19.08;;
44995;SDS011;30729;49.486;10.792;2023-06-22T11:07:33;18.33;;;16.70;;
44995;SDS011;30729;49.486;10.792;2023-06-22T11:09:58;19.17;;;17.52;;
44995;SDS011;30729;49.486;10.792;2023-06-22T11:12:23;18.25;;;16.55;;
44995;SDS011;30729;49.486;10.792;2023-06-22T11:14:48;17.47;;;16.13;;
44995;SDS011;30729;49.486;10.792;2023-06-22T11:17:16;20.98;;;19.58;;
44995;SDS011;30729;49.486;10.792;2023-06-22T11:19:41;22.30;;;20.75;;
44995;SDS011;30729;49.486;10.792;2023-06-22T11:22:06;23.00;;;21.10;;
44995;SDS011;30729;49.486;10.792;2023-06-22T11:24:32;22.30;;;20.27;;
44995;SDS011;30729;49.486;10.792;2023-06-22T11:26:57;25.77;;;24.02;;
44995;SDS011;30729;49.486;10.792;2023-06-22T11:29:22;26.23;;;24.30;;
44995;SDS011;30729;49.486;10.792;2023-06-22T11:31:47;27.33;;;25.50;;
44995;SDS011;30729;49.486;10.792;2023-06-22T11:34:13;25.30;;;23.67;;
44995;SDS011;30729;49.486;10.792;2023-06-22T11:36:38;28.23;;;26.00;;
44995;SDS011;30729;49.486;10.792;2023-06-22T11:39:03;27.85;;;25.92;;
44995;SDS011;30729;49.486;10.792;2023-06-22T11:41:28;28.33;;;26.50;;
44995;SDS011;30729;49.486;10.792;2023-06-22T11:43:53;25.13;;;23.53;;
44995;SDS011;30729;49.486;10.792;2023-06-22T11:46:18;24.17;;;22.00;;
44995;SDS011;30729;49.486;10.792;2023-06-22T11:48:44;28.58;;;26.63;;
44995;SDS011;30729;49.486;10.792;2023-06-22T11:51:09;26.50;;;24.77;;
44995;SDS011;30729;49.486;10.792;2023-06-22T11:53:34;27.60;;;25.73;;
44995;SDS011;30729;49.486;10.792;2023-06-22T11:56:00;31.33;;;29.52;;
44995;SDS011;30729;49.486;10.792;2023-06-22T11:58:25;28.17;;;25.60;;
44995;SDS011;30729;49.486;10.792;2023-06-22T12:00:51;29.30;;;27.40;;
44995;SDS011;30729;49.486;10.792;2023-06-22T12:03:17;32.00;;;29.75;;
44995;SDS011;30729;49.486;10.792;2023-06-22T12:05:42;35.20;;;33.03;;
44995;SDS011;30729;49.486;10.792;2023-06-22T12:08:07;35.92;;;33.40;;
44995;SDS011;30729;49.486;10.792;2023-06-22T12:10:32;34.67;;;32.47;;
44995;SDS011;30729;49.486;10.792;2023-06-22T12:12:57;33.40;;;30.90;;
44995;SDS011;30729;49.486;10.792;2023-06-22T12:15:24;29.45;;;27.45;;
44995;SDS011;30729;49.486;10.792;2023-06-22T12:17:49;33.40;;;31.30;;
44995;SDS011;30729;49.486;10.792;2023-06-22T12:20:15;36.17;;;33.77;;
44995;SDS011;30729;49.486;10.792;2023-06-22T12:22:40;37.63;;;35.27;;
44995;SDS011;30729;49.486;10.792;2023-06-22T12:25:06;37.25;;;34.72;;
44995;SDS011;30729;49.486;10.792;2023-06-22T12:27:31;44.22;;;41.80;;
44995;SDS011;30729;49.486;10.792;2023-06-22T12:29:56;39.90;;;37.30;;
44995;SDS011;30729;49.486;10.792;2023-06-22T12:32:21;32.33;;;30.02;;
44995;SDS011;30729;49.486;10.792;2023-06-22T12:34:47;32.57;;;30.13;;
44995;SDS011;30729;49.486;10.792;2023-06-22T12:37:12;26.70;;;24.45;;
44995;SDS011;30729;49.486;10.792;2023-06-22T12:39:37;27.98;;;26.05;;
44995;SDS011;30729;49.486;10.792;2023-06-22T12:42:02;28.40;;;26.33;;
44995;SDS011;30729;49.486;10.792;2023-06-22T12:44:27;25.52;;;23.58;;
44995;SDS011;30729;49.486;10.792;2023-06-22T12:46:53;22.87;;;21.07;;
44995;SDS011;30729;49.486;10.792;2023-06-22T12:49:18;22.70;;;20.67;;
44995;SDS011;30729;49.486;10.792;2023-06-22T12:51:43;20.27;;;18.57;;
44995;SDS011;30729;49.486;10.792;2023-06-22T12:54:09;18.08;;;16.27;;
44995;SDS011;30729;49.486;10.792;2023-06-22T12:56:34;21.65;;;19.63;;
44995;SDS011;30729;49.486;10.792;2023-06-22T12:58:59;18.55;;;17.15;;
44995;SDS011;30729;49.486;10.792;2023-06-22T13:01:27;15.77;;;14.27;;
44995;SDS011;30729;49.486;10.792;2023-06-22T13:03:52;16.98;;;14.85;;
44995;SDS011;30729;49.486;10.792;2023-06-22T13:06:18;16.27;;;14.90;;
44995;SDS011;30729;49.486;10.792;2023-06-22T13:08:43;17.48;;;15.85;;
44995;SDS011;30729;49.486;10.792;2023-06-22T13:11:08;17.13;;;15.67;;
44995;SDS011;30729;49.486;10.792;2023-06-22T13:13:33;19.20;;;17.17;;
44995;SDS011;30729;49.486;10.792;2023-06-22T13:15:59;19.83;;;17.88;;
44995;SDS011;30729;49.486;10.792;2023-06-22T13:18:24;20.83;;;19.02;;
44995;SDS011;30729;49.486;10.792;2023-06-22T13:20:49;24.63;;;23.02;;
44995;SDS011;30729;49.486;10.792;2023-06-22T13:23:14;26.60;;;24.80;;
44995;SDS011;30729;49.486;10.792;2023-06-22T13:25:39;29.67;;;27.47;;
44995;SDS011;30729;49.486;10.792;2023-06-22T13:28:04;28.63;;;26.63;;
44995;SDS011;30729;49.486;10.792;2023-06-22T13:30:30;26.92;;;24.92;;
44995;SDS011;30729;49.486;10.792;2023-06-22T13:32:56;28.85;;;26.75;;
44995;SDS011;30729;49.486;10.792;2023-06-22T13:35:22;26.02;;;23.85;;
44995;SDS011;30729;49.486;10.792;2023-06-22T13:37:47;28.10;;;25.80;;
44995;SDS011;30729;49.486;10.792;2023-06-22T13:40:12;25.13;;;23.30;;
44995;SDS011;30729;49.486;10.792;2023-06-22T13:42:37;22.50;;;20.60;;
44995;SDS011;30729;49.486;10.792;2023-06-22T13:45:03;16.77;;;15.27;;
44995;SDS011;30729;49.486;10.792;2023-06-22T13:47:29;19.13;;;17.33;;
44995;SDS011;30729;49.486;10.792;2023-06-22T13:49:54;17.08;;;15.50;;
44995;SDS011;30729;49.486;10.792;2023-06-22T13:52:19;17.42;;;15.75;;
44995;SDS011;30729;49.486;10.792;2023-06-22T13:54:44;16.25;;;14.75;;
44995;SDS011;30729;49.486;10.792;2023-06-22T13:57:09;14.80;;;13.40;;
44995;SDS011;30729;49.486;10.792;2023-06-22T13:59:35;15.40;;;13.90;;
44995;SDS011;30729;49.486;10.792;2023-06-22T14:02:00;16.83;;;12.73;;
44995;SDS011;30729;49.486;10.792;2023-06-22T14:04:25;18.17;;;13.82;;
44995;SDS011;30729;49.486;10.792;2023-06-22T14:06:50;15.55;;;13.75;;
44995;SDS011;30729;49.486;10.792;2023-06-22T14:09:16;14.93;;;13.53;;
44995;SDS011;30729;49.486;10.792;2023-06-22T14:11:41;19.07;;;17.67;;
44995;SDS011;30729;49.486;10.792;2023-06-22T14:14:06;19.98;;;18.38;;
44995;SDS011;30729;49.486;10.792;2023-06-22T14:16:31;17.45;;;15.77;;